Time;durP1;ratioP1;P1;durP2;ratioP2;P2;SDS_P1;SDS_P2;PMS_P1;PMS_P2;Temp;Humidity;BMP_temperature;BMP_pressure;BME280_temperature;BME280_humidity;BME280_pressure;Samples;Min_cycle;Max_cycle;Signal;HPM_P1;HPM_P2
2021/11/15 00:00:51;;;;;;;24.73;14.60;;;6.90;99.90;;;;;;4971902;28;20537;-61
2021/11/15 00:03:18;;;;;;;27.23;14.13;;;6.90;99.90;;;;;;4971464;28;20212;-60
2021/11/15 00:05:44;;;;;;;28.63;15.10;;;6.90;99.90;;;;;;4967342;28;20438;-61
2021/11/15 00:08:10;;;;;;;25.87;13.70;;;6.80;99.90;;;;;;4969994;28;20425;-61
2021/11/15 00:10:36;;;;;;;26.70;14.33;;;6.90;99.90;;;;;;4969737;28;20434;-61
2021/11/15 00:13:02;;;;;;;26.97;13.47;;;6.80;99.90;;;;;;4969188;28;20213;-60
2021/11/15 00:15:33;;;;;;;19.87;12.10;;;6.80;99.90;;;;;;4968834;28;20434;-61
2021/11/15 00:17:59;;;;;;;23.57;12.50;;;6.80;99.90;;;;;;4970167;28;20197;-61
2021/11/15 00:20:26;;;;;;;22.40;11.97;;;6.80;99.90;;;;;;4969207;28;20452;-61
2021/11/15 00:22:51;;;;;;;19.97;11.53;;;6.80;99.90;;;;;;4967136;28;20429;-61
2021/11/15 00:25:17;;;;;;;21.63;11.20;;;6.80;99.90;;;;;;4971614;28;20440;-61
2021/11/15 00:27:43;;;;;;;19.43;10.80;;;6.80;99.90;;;;;;4980501;28;20186;-60
2021/11/15 00:30:11;;;;;;;18.80;11.03;;;6.80;99.90;;;;;;4963391;28;20457;-61
2021/11/15 00:32:37;;;;;;;20.77;11.63;;;6.80;99.90;;;;;;4968723;28;20256;-61
2021/11/15 00:35:05;;;;;;;20.70;11.60;;;6.80;99.90;;;;;;4982838;28;20437;-60
2021/11/15 00:37:31;;;;;;;19.03;10.83;;;6.70;99.90;;;;;;4972777;28;20851;-61
2021/11/15 00:39:58;;;;;;;22.47;11.70;;;6.80;99.90;;;;;;4965088;28;20453;-60
2021/11/15 00:42:24;;;;;;;20.10;11.03;;;6.80;99.90;;;;;;4965833;28;20202;-61
2021/11/15 00:44:49;;;;;;;19.97;10.67;;;6.70;99.90;;;;;;4974404;28;20452;-60
2021/11/15 00:47:15;;;;;;;22.03;10.90;;;6.70;99.90;;;;;;4975146;28;20272;-61
2021/11/15 00:49:40;;;;;;;22.80;11.70;;;6.70;99.90;;;;;;4968416;28;20288;-58
2021/11/15 00:52:07;;;;;;;25.60;12.23;;;6.70;99.90;;;;;;4970050;28;20185;-60
2021/11/15 00:54:34;;;;;;;23.00;11.40;;;6.70;99.90;;;;;;4976484;28;20766;-60
2021/11/15 00:57:01;;;;;;;24.00;11.43;;;6.70;99.90;;;;;;4968587;28;20964;-61
2021/11/15 00:59:28;;;;;;;22.50;12.00;;;6.70;99.90;;;;;;4965866;28;20464;-60
2021/11/15 01:01:55;;;;;;;22.43;10.43;;;6.70;99.90;;;;;;4970057;28;20967;-60
2021/11/15 01:04:21;;;;;;;18.83;10.73;;;6.70;99.90;;;;;;4967910;28;20441;-61
2021/11/15 01:06:47;;;;;;;20.30;10.33;;;6.60;99.90;;;;;;4972805;28;20491;-61
2021/11/15 01:09:12;;;;;;;19.80;10.60;;;6.60;99.90;;;;;;4969886;28;20208;-60
2021/11/15 01:11:38;;;;;;;23.93;12.03;;;6.60;99.90;;;;;;4968237;28;20239;-60
2021/11/15 01:14:04;;;;;;;19.43;11.07;;;6.60;99.90;;;;;;4974659;28;20190;-61
2021/11/15 01:16:30;;;;;;;21.43;11.00;;;6.60;99.90;;;;;;4964341;28;20613;-61
2021/11/15 01:18:56;;;;;;;21.87;10.80;;;6.60;99.90;;;;;;4971735;28;20221;-61
2021/11/15 01:21:27;;;;;;;24.10;12.23;;;6.60;99.90;;;;;;4968590;28;20177;-60
2021/11/15 01:23:54;;;;;;;26.00;12.53;;;6.60;99.90;;;;;;4962529;28;20429;-61
2021/11/15 01:26:19;;;;;;;23.37;13.23;;;6.50;99.90;;;;;;4969425;28;20444;-60
2021/11/15 01:28:45;;;;;;;21.93;12.20;;;6.50;99.90;;;;;;4968549;28;20453;-61
2021/11/15 01:31:11;;;;;;;25.17;12.60;;;6.50;99.90;;;;;;4974272;28;20261;-59
2021/11/15 01:33:36;;;;;;;26.60;13.50;;;6.40;99.90;;;;;;4969553;28;20190;-61
2021/11/15 01:36:02;;;;;;;24.80;13.83;;;6.40;99.90;;;;;;4974325;28;20287;-59
2021/11/15 01:38:28;;;;;;;25.20;13.13;;;6.40;99.90;;;;;;4971420;28;20271;-61
2021/11/15 01:40:54;;;;;;;30.97;14.23;;;6.30;99.90;;;;;;4980818;28;20316;-60
2021/11/15 01:43:21;;;;;;;28.93;14.20;;;6.30;99.90;;;;;;4969019;28;20437;-60
2021/11/15 01:45:47;;;;;;;23.73;13.17;;;6.40;99.90;;;;;;4976130;28;20429;-59
2021/11/15 01:48:13;;;;;;;27.90;13.53;;;6.40;99.90;;;;;;4984095;28;20414;-61
2021/11/15 01:50:40;;;;;;;23.60;12.47;;;6.30;99.90;;;;;;4967114;28;20524;-61
2021/11/15 01:53:08;;;;;;;26.37;12.93;;;6.30;99.90;;;;;;4976120;28;20421;-61
2021/11/15 01:55:35;;;;;;;26.03;14.33;;;6.30;99.90;;;;;;4967576;28;20433;-58
2021/11/15 01:58:03;;;;;;;28.10;14.90;;;6.30;99.90;;;;;;4975743;28;20484;-59
2021/11/15 02:00:33;;;;;;;31.27;14.90;;;6.30;99.90;;;;;;4977887;28;20428;-61
2021/11/15 02:03:00;;;;;;;28.10;15.03;;;6.30;99.90;;;;;;4974152;28;20426;-58
2021/11/15 02:05:26;;;;;;;31.73;14.80;;;6.30;99.90;;;;;;4965854;28;20418;-61
2021/11/15 02:07:52;;;;;;;35.23;16.10;;;6.30;99.90;;;;;;4968998;28;20473;-60
2021/11/15 02:10:18;;;;;;;31.37;14.63;;;6.20;99.90;;;;;;4973359;28;20536;-61
2021/11/15 02:12:44;;;;;;;31.73;14.90;;;6.30;99.90;;;;;;4968036;28;20955;-59
2021/11/15 02:15:12;;;;;;;37.60;16.70;;;6.30;99.90;;;;;;4972496;28;20429;-61
2021/11/15 02:17:40;;;;;;;32.27;15.00;;;6.20;99.90;;;;;;4963326;28;20484;-61
2021/11/15 02:20:08;;;;;;;29.63;15.20;;;6.20;99.90;;;;;;4977851;28;20469;-61
2021/11/15 02:22:34;;;;;;;38.07;17.43;;;6.20;99.90;;;;;;4955811;28;20428;-61
2021/11/15 02:25:06;;;;;;;35.50;16.20;;;6.20;99.90;;;;;;4979133;28;20421;-60
2021/11/15 02:27:32;;;;;;;33.47;17.80;;;6.20;99.90;;;;;;4964604;28;20818;-59
2021/11/15 02:29:57;;;;;;;28.90;15.43;;;6.20;99.90;;;;;;4965789;28;20498;-60
2021/11/15 02:32:23;;;;;;;29.80;15.20;;;6.20;99.90;;;;;;4968031;28;20265;-59
2021/11/15 02:34:48;;;;;;;29.03;15.50;;;6.20;99.90;;;;;;4969596;28;20197;-61
2021/11/15 02:37:14;;;;;;;36.07;16.57;;;6.20;99.90;;;;;;4975918;28;20181;-59
2021/11/15 02:39:40;;;;;;;31.37;14.97;;;6.20;99.90;;;;;;4980324;28;20708;-61
2021/11/15 02:42:05;;;;;;;29.43;15.60;;;6.10;99.90;;;;;;4968502;28;20177;-59
2021/11/15 02:44:31;;;;;;;31.00;14.47;;;6.10;99.90;;;;;;4972972;28;20422;-61
2021/11/15 02:46:57;;;;;;;30.13;14.27;;;6.10;99.90;;;;;;4955649;28;20206;-61
2021/11/15 02:49:22;;;;;;;31.10;13.77;;;6.10;99.90;;;;;;4968322;28;20201;-61
2021/11/15 02:51:49;;;;;;;27.80;13.87;;;6.00;99.90;;;;;;4966557;28;20196;-61
2021/11/15 02:54:15;;;;;;;28.40;13.00;;;6.00;99.90;;;;;;4968165;28;20213;-61
2021/11/15 02:56:40;;;;;;;27.83;13.20;;;6.00;99.90;;;;;;4963036;28;20495;-63
2021/11/15 02:59:06;;;;;;;24.63;13.53;;;6.00;99.90;;;;;;4984027;28;20212;-59
2021/11/15 03:01:32;;;;;;;30.03;13.80;;;5.90;99.90;;;;;;4973438;28;20429;-61
2021/11/15 03:03:58;;;;;;;26.70;12.17;;;5.90;99.90;;;;;;4964062;28;20408;-60
2021/11/15 03:06:23;;;;;;;28.70;13.30;;;5.90;99.90;;;;;;4965904;28;20325;-60
2021/11/15 03:08:50;;;;;;;28.67;14.33;;;5.90;99.90;;;;;;4971916;28;20218;-60
2021/11/15 03:11:15;;;;;;;30.17;13.90;;;5.80;99.90;;;;;;4980294;28;20220;-61
2021/11/15 03:13:45;;;;;;;30.20;14.80;;;5.80;99.90;;;;;;4964369;28;20856;-60
2021/11/15 03:16:11;;;;;;;29.33;14.10;;;5.80;99.90;;;;;;4972904;28;20178;-59
2021/11/15 03:18:40;;;;;;;27.73;13.40;;;5.80;99.90;;;;;;4981037;28;20486;-60
2021/11/15 03:21:07;;;;;;;25.23;13.10;;;5.80;99.90;;;;;;4974525;28;20433;-60
2021/11/15 03:23:38;;;;;;;24.03;12.50;;;5.70;99.90;;;;;;4963698;28;20512;-59
2021/11/15 03:26:05;;;;;;;28.90;13.93;;;5.70;99.90;;;;;;4978278;28;20789;-60
2021/11/15 03:28:33;;;;;;;32.60;15.10;;;5.70;99.90;;;;;;4975375;28;20448;-60
2021/11/15 03:31:06;;;;;;;29.00;14.87;;;5.70;99.90;;;;;;4970542;28;20437;-58
2021/11/15 03:33:33;;;;;;;34.30;15.50;;;5.70;99.90;;;;;;4973718;28;20952;-60
2021/11/15 03:35:59;;;;;;;31.20;14.53;;;5.70;99.90;;;;;;4972840;28;20476;-60
2021/11/15 03:38:25;;;;;;;28.50;13.27;;;5.70;99.90;;;;;;4970146;28;20465;-60
2021/11/15 03:40:51;;;;;;;33.50;15.47;;;5.70;99.90;;;;;;4963925;28;20444;-59
2021/11/15 03:43:17;;;;;;;31.43;14.47;;;5.60;99.90;;;;;;4983196;28;20767;-59
2021/11/15 03:45:43;;;;;;;29.70;13.23;;;5.60;99.90;;;;;;4991961;28;20447;-60
2021/11/15 03:48:10;;;;;;;30.77;14.43;;;5.60;99.90;;;;;;4975406;28;20181;-61
2021/11/15 03:50:36;;;;;;;27.73;13.53;;;5.60;99.90;;;;;;4978274;28;20173;-60
2021/11/15 03:53:04;;;;;;;26.33;13.37;;;5.60;99.90;;;;;;4978032;28;20440;-60
2021/11/15 03:55:30;;;;;;;28.33;14.37;;;5.60;99.90;;;;;;4979549;28;20447;-59
2021/11/15 03:57:56;;;;;;;24.73;13.67;;;5.50;99.90;;;;;;4973690;28;20440;-60
2021/11/15 04:00:26;;;;;;;35.13;14.80;;;5.50;99.90;;;;;;4973965;28;20543;-61
2021/11/15 04:02:56;;;;;;;28.00;13.23;;;5.50;99.90;;;;;;4970747;28;20437;-60
2021/11/15 04:05:30;;;;;;;25.10;13.97;;;5.50;99.90;;;;;;4978090;28;20436;-60
2021/11/15 04:07:57;;;;;;;30.00;14.70;;;5.50;99.90;;;;;;4968215;28;20521;-59
2021/11/15 04:10:30;;;;;;;29.73;14.73;;;5.50;99.90;;;;;;4979725;28;20775;-59
2021/11/15 04:12:58;;;;;;;30.00;14.33;;;5.50;99.90;;;;;;4969724;28;20429;-62
2021/11/15 04:15:24;;;;;;;28.87;14.13;;;5.50;99.90;;;;;;4981873;28;20452;-60
2021/11/15 04:17:51;;;;;;;29.10;15.77;;;5.50;99.90;;;;;;4965076;28;20511;-59
2021/11/15 04:20:19;;;;;;;27.13;13.60;;;5.50;99.90;;;;;;4972093;28;20465;-60
2021/11/15 04:22:45;;;;;;;31.77;14.77;;;5.50;99.90;;;;;;4978331;28;20826;-61
2021/11/15 04:25:11;;;;;;;28.50;15.27;;;5.50;99.90;;;;;;4973665;28;20436;-61
2021/11/15 04:27:37;;;;;;;29.63;13.70;;;5.50;99.90;;;;;;4973796;28;20251;-60
2021/11/15 04:30:05;;;;;;;29.80;13.60;;;5.50;99.90;;;;;;4974076;28;20688;-60
2021/11/15 04:32:31;;;;;;;28.00;13.30;;;5.40;99.90;;;;;;4964924;28;20520;-61
2021/11/15 04:34:56;;;;;;;29.33;13.47;;;5.40;99.90;;;;;;4979225;28;20610;-60
2021/11/15 04:37:22;;;;;;;30.53;14.70;;;5.40;99.90;;;;;;4967728;28;20218;-61
2021/11/15 04:39:48;;;;;;;26.37;12.63;;;5.40;99.90;;;;;;4972640;28;20642;-61
2021/11/15 04:42:14;;;;;;;24.83;11.50;;;5.40;99.90;;;;;;4978697;28;20253;-60
2021/11/15 04:44:39;;;;;;;26.80;12.53;;;5.40;99.90;;;;;;4983781;28;20169;-61
2021/11/15 04:47:05;;;;;;;27.40;11.90;;;5.40;99.90;;;;;;4963150;28;20613;-60
2021/11/15 04:49:31;;;;;;;28.17;12.77;;;5.30;99.90;;;;;;4971002;28;20205;-59
2021/11/15 04:51:56;;;;;;;27.77;12.20;;;5.30;99.90;;;;;;4963770;28;20186;-59
2021/11/15 04:54:22;;;;;;;33.03;12.13;;;5.30;99.90;;;;;;4965424;28;20178;-59
2021/11/15 04:56:48;;;;;;;25.60;12.87;;;5.30;99.90;;;;;;4959960;28;20187;-59
2021/11/15 04:59:15;;;;;;;22.13;11.27;;;5.20;99.90;;;;;;4961226;28;20218;-59
2021/11/15 05:01:41;;;;;;;27.60;11.00;;;5.20;99.90;;;;;;4958276;28;20434;-59
2021/11/15 05:04:07;;;;;;;26.70;11.93;;;5.20;99.90;;;;;;4964126;28;20440;-60
2021/11/15 05:06:33;;;;;;;24.93;11.73;;;5.20;99.90;;;;;;4969343;28;20428;-60
2021/11/15 05:09:00;;;;;;;26.40;11.87;;;5.20;99.90;;;;;;4965381;28;20261;-59
2021/11/15 05:11:25;;;;;;;25.20;12.57;;;5.20;99.90;;;;;;4963642;28;20461;-60
2021/11/15 05:13:51;;;;;;;25.90;11.23;;;5.20;99.90;;;;;;4958659;28;20880;-60
2021/11/15 05:16:17;;;;;;;24.30;11.60;;;5.20;99.90;;;;;;4956441;28;20200;-61
2021/11/15 05:18:43;;;;;;;26.93;11.53;;;5.20;99.90;;;;;;4962718;28;20212;-60
2021/11/15 05:21:09;;;;;;;22.10;11.50;;;5.20;99.90;;;;;;4962469;28;20827;-61
2021/11/15 05:23:37;;;;;;;22.97;11.80;;;5.20;99.90;;;;;;4967642;28;20554;-59
2021/11/15 05:26:02;;;;;;;22.20;10.80;;;5.20;99.90;;;;;;4969551;28;21822;-60
2021/11/15 05:28:28;;;;;;;30.00;12.17;;;5.20;99.90;;;;;;4962446;28;20458;-60
2021/11/15 05:30:54;;;;;;;22.73;11.77;;;5.20;99.90;;;;;;4958709;28;20433;-60
2021/11/15 05:33:19;;;;;;;22.07;10.17;;;5.20;99.90;;;;;;4964863;28;20615;-60
2021/11/15 05:35:45;;;;;;;23.70;11.07;;;5.20;99.90;;;;;;4966661;28;20249;-61
2021/11/15 05:38:11;;;;;;;26.13;10.60;;;5.20;99.90;;;;;;4967240;28;20197;-60
2021/11/15 05:40:37;;;;;;;24.30;12.30;;;5.20;99.90;;;;;;4958557;28;20236;-61
2021/11/15 05:43:03;;;;;;;22.73;11.50;;;5.20;99.90;;;;;;4968374;28;20181;-60
2021/11/15 05:45:29;;;;;;;25.20;12.40;;;5.20;99.90;;;;;;4964620;28;20178;-60
2021/11/15 05:47:55;;;;;;;25.07;12.90;;;5.20;99.90;;;;;;4966806;28;20517;-60
2021/11/15 05:50:23;;;;;;;26.97;11.80;;;5.10;99.90;;;;;;4967902;28;20512;-60
2021/11/15 05:52:50;;;;;;;27.23;12.57;;;5.10;99.90;;;;;;4967360;28;20959;-61
2021/11/15 05:55:20;;;;;;;22.13;10.83;;;5.20;99.90;;;;;;4966942;28;20445;-60
2021/11/15 05:57:46;;;;;;;25.13;12.40;;;5.20;99.90;;;;;;4966143;28;20429;-58
2021/11/15 06:00:18;;;;;;;22.73;12.40;;;5.20;99.90;;;;;;4960590;28;20455;-57
2021/11/15 06:02:44;;;;;;;30.40;13.00;;;5.20;99.90;;;;;;4965804;28;20637;-60
2021/11/15 06:05:11;;;;;;;26.10;12.33;;;5.30;99.90;;;;;;4969941;28;20428;-61
2021/11/15 06:07:37;;;;;;;23.70;11.37;;;5.20;99.90;;;;;;4962762;28;20483;-59
2021/11/15 06:10:06;;;;;;;26.30;11.23;;;5.20;99.90;;;;;;4974720;28;20452;-60
2021/11/15 06:12:31;;;;;;;26.90;13.40;;;5.20;99.90;;;;;;4953525;28;20198;-60
2021/11/15 06:14:57;;;;;;;25.67;12.10;;;5.20;99.90;;;;;;4968354;28;20420;-60
2021/11/15 06:17:23;;;;;;;22.43;11.53;;;5.20;99.90;;;;;;4978626;28;20444;-60
2021/11/15 06:19:49;;;;;;;30.03;12.60;;;5.20;99.90;;;;;;4979260;28;20212;-60
2021/11/15 06:22:15;;;;;;;24.60;12.23;;;5.20;99.90;;;;;;4972670;28;20602;-61
2021/11/15 06:24:46;;;;;;;28.37;11.87;;;5.20;99.90;;;;;;4975457;28;20185;-59
2021/11/15 06:27:13;;;;;;;26.43;11.10;;;5.10;99.90;;;;;;4966639;28;20437;-60
2021/11/15 06:29:39;;;;;;;23.50;10.47;;;5.10;99.90;;;;;;4966983;28;20446;-61
2021/11/15 06:32:05;;;;;;;19.60;9.43;;;5.10;99.90;;;;;;4963196;28;20448;-60
2021/11/15 06:34:31;;;;;;;22.10;10.83;;;5.10;99.90;;;;;;4978481;28;20182;-60
2021/11/15 06:36:57;;;;;;;20.70;9.77;;;5.00;99.90;;;;;;4965491;28;20819;-61
2021/11/15 06:39:25;;;;;;;24.37;11.07;;;5.00;99.90;;;;;;4965457;28;20707;-61
2021/11/15 06:41:53;;;;;;;25.40;10.07;;;5.00;99.90;;;;;;4972292;28;20792;-60
2021/11/15 06:44:22;;;;;;;19.57;10.47;;;4.90;99.90;;;;;;4972920;28;20522;-61
2021/11/15 06:46:48;;;;;;;18.27;9.33;;;4.90;99.90;;;;;;4970676;28;20862;-59
2021/11/15 06:49:16;;;;;;;23.83;11.40;;;4.90;99.90;;;;;;4974348;28;20425;-62
2021/11/15 06:51:42;;;;;;;20.70;9.87;;;4.90;99.90;;;;;;4974600;28;20471;-61
2021/11/15 06:54:09;;;;;;;17.90;9.17;;;4.90;99.90;;;;;;4984443;28;20429;-61
2021/11/15 06:56:35;;;;;;;22.53;11.40;;;4.80;99.90;;;;;;4971528;28;20495;-60
2021/11/15 06:59:01;;;;;;;20.87;9.90;;;4.80;99.90;;;;;;4975373;28;20469;-60
2021/11/15 07:01:27;;;;;;;13.23;8.27;;;4.80;99.90;;;;;;4986640;28;20540;-62
2021/11/15 07:03:53;;;;;;;26.27;8.53;;;4.80;99.90;;;;;;4974240;28;20971;-58
2021/11/15 07:06:19;;;;;;;16.60;8.27;;;4.70;99.90;;;;;;4970945;28;20230;-61
2021/11/15 07:08:44;;;;;;;13.77;8.30;;;4.80;99.90;;;;;;4970011;28;20547;-60
2021/11/15 07:11:10;;;;;;;17.07;8.30;;;4.80;99.90;;;;;;4981346;28;20192;-60
2021/11/15 07:13:36;;;;;;;25.33;9.80;;;4.80;99.90;;;;;;4977684;28;20431;-60
2021/11/15 07:16:02;;;;;;;16.60;9.37;;;4.80;99.90;;;;;;4978965;28;20252;-59
2021/11/15 07:18:28;;;;;;;15.83;8.83;;;4.80;99.90;;;;;;4966006;28;20204;-60
2021/11/15 07:20:54;;;;;;;15.60;8.63;;;4.80;99.90;;;;;;4971477;28;20445;-60
2021/11/15 07:23:22;;;;;;;15.63;8.37;;;4.90;99.90;;;;;;4982115;28;20437;-59
2021/11/15 07:25:48;;;;;;;18.10;9.17;;;4.80;99.90;;;;;;4973460;28;20421;-60
2021/11/15 07:28:14;;;;;;;20.00;9.47;;;4.90;99.90;;;;;;4972028;28;20969;-60
2021/11/15 07:30:40;;;;;;;17.90;8.57;;;4.90;99.90;;;;;;4960731;28;20432;-60
2021/11/15 07:33:07;;;;;;;16.50;8.10;;;4.80;99.90;;;;;;4967828;28;20197;-60
2021/11/15 07:35:33;;;;;;;17.50;8.03;;;4.80;99.90;;;;;;4971798;28;20417;-61
2021/11/15 07:37:59;;;;;;;16.77;7.67;;;4.80;99.90;;;;;;4972801;28;20421;-59
2021/11/15 07:40:25;;;;;;;16.30;8.47;;;4.80;99.90;;;;;;4972364;28;20508;-60
2021/11/15 07:42:51;;;;;;;16.77;8.67;;;4.90;99.90;;;;;;4963993;28;20433;-60
2021/11/15 07:45:18;;;;;;;14.50;8.57;;;4.80;99.90;;;;;;4973059;28;20984;-58
2021/11/15 07:47:44;;;;;;;15.97;8.70;;;4.80;99.90;;;;;;4970264;28;20441;-59
2021/11/15 07:50:11;;;;;;;14.10;7.50;;;4.80;99.90;;;;;;4975291;28;20532;-57
2021/11/15 07:52:37;;;;;;;15.60;7.97;;;4.80;99.90;;;;;;4979133;28;20482;-59
2021/11/15 07:55:07;;;;;;;16.97;8.00;;;4.90;99.90;;;;;;4972543;28;20972;-60
2021/11/15 07:57:33;;;;;;;17.07;7.97;;;4.90;99.90;;;;;;4969036;28;20979;-60
2021/11/15 07:59:59;;;;;;;13.80;7.50;;;4.90;99.90;;;;;;4963080;28;20946;-57
2021/11/15 08:02:25;;;;;;;14.57;7.60;;;4.90;99.90;;;;;;4963273;28;20460;-60
2021/11/15 08:04:51;;;;;;;15.17;6.63;;;4.90;99.90;;;;;;4971877;28;20285;-59
2021/11/15 08:07:17;;;;;;;13.60;7.77;;;4.90;99.90;;;;;;4972166;28;20688;-60
2021/11/15 08:09:42;;;;;;;14.03;7.77;;;4.90;99.90;;;;;;4957973;28;20199;-61
2021/11/15 08:12:10;;;;;;;16.07;7.57;;;4.90;99.90;;;;;;4959978;28;20676;-59
2021/11/15 08:14:40;;;;;;;15.80;8.00;;;4.90;99.90;;;;;;4954909;28;20289;-58
2021/11/15 08:17:07;;;;;;;15.50;7.30;;;5.00;99.90;;;;;;4971529;28;20435;-60
2021/11/15 08:19:34;;;;;;;14.90;7.60;;;4.90;99.90;;;;;;4973525;28;20453;-61
2021/11/15 08:21:59;;;;;;;11.43;6.50;;;4.90;99.90;;;;;;4965052;28;20431;-59
2021/11/15 08:24:54;;;;;;;14.97;7.27;;;4.90;99.90;;;;;;4971326;28;20423;-60
2021/11/15 08:27:20;;;;;;;12.93;7.40;;;4.90;99.90;;;;;;4978434;28;20687;-59
2021/11/15 08:29:46;;;;;;;12.70;6.57;;;4.90;99.90;;;;;;4970169;28;20548;-60
2021/11/15 08:32:14;;;;;;;12.83;6.53;;;5.00;99.90;;;;;;4971072;28;20436;-60
2021/11/15 08:34:39;;;;;;;16.37;7.60;;;4.90;99.90;;;;;;4971849;28;20174;-60
2021/11/15 08:37:06;;;;;;;14.90;7.70;;;5.00;99.90;;;;;;4972180;28;20433;-60
2021/11/15 08:39:34;;;;;;;15.80;8.00;;;5.00;99.90;;;;;;4965039;28;20404;-60
2021/11/15 08:42:03;;;;;;;15.20;6.87;;;4.90;99.90;;;;;;4970537;28;20420;-60
2021/11/15 08:44:30;;;;;;;14.90;6.83;;;4.90;99.90;;;;;;4973645;28;20492;-61
2021/11/15 08:46:57;;;;;;;13.23;6.73;;;4.90;99.90;;;;;;4972283;28;20610;-58
2021/11/15 08:49:26;;;;;;;12.47;7.20;;;4.90;99.90;;;;;;4969494;28;20448;-59
2021/11/15 08:51:52;;;;;;;11.63;6.83;;;4.90;99.90;;;;;;4967642;28;20425;-60
2021/11/15 08:54:20;;;;;;;12.73;7.20;;;5.00;99.90;;;;;;4969591;28;20444;-59
2021/11/15 08:56:48;;;;;;;15.80;7.87;;;5.00;99.90;;;;;;4972028;28;20512;-59
2021/11/15 08:59:14;;;;;;;14.27;8.20;;;5.00;99.90;;;;;;4970171;28;20541;-60
2021/11/15 09:01:41;;;;;;;14.00;7.10;;;5.00;99.90;;;;;;4970386;28;20904;-59
2021/11/15 09:04:08;;;;;;;13.93;7.40;;;5.00;99.90;;;;;;4960213;28;20256;-60
2021/11/15 09:06:35;;;;;;;14.13;7.50;;;5.00;99.90;;;;;;4971996;28;20413;-59
2021/11/15 09:09:03;;;;;;;14.53;7.30;;;5.00;99.90;;;;;;4972432;28;20806;-59
2021/11/15 09:11:29;;;;;;;14.30;7.40;;;5.00;99.90;;;;;;4965653;28;20460;-59
2021/11/15 09:13:56;;;;;;;18.03;7.83;;;5.10;99.90;;;;;;4976929;28;21096;-60
2021/11/15 09:16:21;;;;;;;15.53;7.90;;;5.10;99.90;;;;;;4983185;28;20169;-60
2021/11/15 09:18:47;;;;;;;13.17;6.50;;;5.10;99.90;;;;;;4990990;28;20802;-60
2021/11/15 09:21:15;;;;;;;21.50;8.67;;;5.10;99.90;;;;;;4975717;28;20177;-59
2021/11/15 09:23:43;;;;;;;14.90;8.20;;;5.10;99.90;;;;;;4954996;28;20274;-59
2021/11/15 09:26:14;;;;;;;15.63;8.00;;;5.10;99.90;;;;;;4952275;28;20689;-56
2021/11/15 09:28:40;;;;;;;15.20;8.00;;;5.10;99.90;;;;;;4975506;28;20503;-59
2021/11/15 09:31:07;;;;;;;14.07;7.60;;;5.00;99.90;;;;;;4968866;28;20429;-59
2021/11/15 09:33:33;;;;;;;12.73;7.40;;;5.00;99.90;;;;;;4957927;28;20468;-58
2021/11/15 09:35:59;;;;;;;19.50;7.70;;;5.00;99.90;;;;;;4964110;28;20618;-61
2021/11/15 09:38:26;;;;;;;15.93;8.70;;;5.00;99.90;;;;;;4968480;28;20551;-59
2021/11/15 09:41:04;;;;;;;17.57;9.67;;;5.10;99.90;;;;;;4970899;28;20995;-58
2021/11/15 09:43:34;;;;;;;16.60;8.73;;;5.10;99.90;;;;;;4968294;28;20433;-57
2021/11/15 09:46:09;;;;;;;16.00;9.17;;;5.10;99.90;;;;;;4964366;28;20872;-58
2021/11/15 09:48:41;;;;;;;14.80;8.20;;;5.10;99.90;;;;;;4970269;28;20542;-59
2021/11/15 09:51:08;;;;;;;18.67;8.60;;;5.10;99.90;;;;;;4982049;28;20432;-60
2021/11/15 09:53:35;;;;;;;19.93;8.17;;;5.10;99.90;;;;;;4965666;28;20963;-58
2021/11/15 09:56:02;;;;;;;14.47;7.97;;;5.20;99.90;;;;;;4974511;28;20522;-59
2021/11/15 09:58:28;;;;;;;16.23;8.33;;;5.20;99.90;;;;;;4963813;28;20558;-59
2021/11/15 10:00:54;;;;;;;15.60;8.17;;;5.20;99.90;;;;;;4960670;28;20442;-59
2021/11/15 10:03:20;;;;;;;15.97;8.40;;;5.20;99.90;;;;;;4963272;28;20433;-58
2021/11/15 10:05:49;;;;;;;17.00;9.13;;;5.20;99.90;;;;;;4955580;28;20438;-59
2021/11/15 10:08:15;;;;;;;17.93;8.33;;;5.20;99.90;;;;;;4964523;28;20185;-59
2021/11/15 10:10:56;;;;;;;19.67;9.63;;;5.10;99.90;;;;;;4967556;28;20951;-58
2021/11/15 10:13:31;;;;;;;19.27;8.27;;;5.10;99.90;;;;;;4970206;28;20460;-59
2021/11/15 10:16:03;;;;;;;17.07;9.23;;;5.10;99.90;;;;;;4967342;28;20479;-60
2021/11/15 10:18:42;;;;;;;17.60;8.57;;;5.00;99.90;;;;;;4970979;28;20464;-60
2021/11/15 10:21:19;;;;;;;20.47;9.23;;;5.00;99.90;;;;;;4970511;28;20938;-60
2021/11/15 10:24:02;;;;;;;19.70;9.27;;;5.00;99.90;;;;;;4964606;28;20904;-58
2021/11/15 10:26:44;;;;;;;22.47;10.00;;;5.00;99.90;;;;;;4969850;28;21123;-59
2021/11/15 10:29:18;;;;;;;23.27;9.00;;;5.00;99.90;;;;;;4970925;28;20453;-59
2021/11/15 10:32:02;;;;;;;18.30;8.67;;;5.00;99.90;;;;;;4966262;28;20421;-59
2021/11/15 10:34:38;;;;;;;16.73;8.37;;;4.90;99.90;;;;;;4962211;28;20442;-60
2021/11/15 10:37:08;;;;;;;16.60;8.43;;;4.90;99.90;;;;;;4962311;28;20804;-59
2021/11/15 10:39:39;;;;;;;17.93;9.57;;;4.90;99.90;;;;;;4967014;28;20539;-60
2021/11/15 10:42:11;;;;;;;17.13;9.13;;;4.90;99.90;;;;;;4969773;28;20430;-61
2021/11/15 10:44:46;;;;;;;18.23;8.73;;;4.90;99.90;;;;;;4961466;28;20513;-60
2021/11/15 10:47:12;;;;;;;19.33;8.10;;;4.90;99.90;;;;;;4970549;28;20452;-59
2021/11/15 10:49:37;;;;;;;17.20;8.60;;;4.90;99.90;;;;;;4969096;28;20449;-60
2021/11/15 10:52:08;;;;;;;15.00;8.27;;;4.90;99.90;;;;;;4964039;28;20429;-59
2021/11/15 10:54:40;;;;;;;16.90;8.90;;;4.90;99.90;;;;;;4959881;28;20213;-59
2021/11/15 10:57:21;;;;;;;19.67;9.00;;;4.90;99.90;;;;;;4965409;28;20853;-60
2021/11/15 11:00:25;;;;;;;18.03;8.40;;;4.90;99.90;;;;;;4968776;28;20480;-59
2021/11/15 11:02:54;;;;;;;14.77;7.70;;;4.90;99.90;;;;;;4906964;29;20422;-60
2021/11/15 11:05:26;;;;;;;14.00;7.73;;;4.90;99.90;;;;;;4958854;28;20967;-60
2021/11/15 11:08:11;;;;;;;16.70;8.10;;;4.90;99.90;;;;;;4965837;28;20433;-61
2021/11/15 11:10:46;;;;;;;13.80;7.90;;;5.00;99.90;;;;;;4966624;28;20465;-60
2021/11/15 11:13:14;;;;;;;12.80;6.83;;;5.00;99.90;;;;;;4969468;28;20422;-60
2021/11/15 11:15:53;;;;;;;12.27;7.50;;;5.00;99.90;;;;;;4970756;28;20765;-61
2021/11/15 11:18:34;;;;;;;15.10;7.37;;;5.00;99.90;;;;;;4963583;28;20468;-59
2021/11/15 11:26:36;;;;;;;14.60;7.83;;;5.00;99.90;;;;;;4968983;28;20423;-60
2021/11/15 11:29:14;;;;;;;16.53;8.43;;;5.10;99.90;;;;;;4974024;28;20448;-60
2021/11/15 11:31:43;;;;;;;19.47;8.17;;;5.00;99.90;;;;;;4963206;28;20794;-59
2021/11/15 11:34:09;;;;;;;15.23;8.23;;;5.10;99.90;;;;;;4956243;28;20458;-62
2021/11/15 11:36:36;;;;;;;15.23;8.50;;;5.00;99.90;;;;;;4971311;28;20423;-60
2021/11/15 11:39:07;;;;;;;15.60;7.63;;;5.00;99.90;;;;;;4965807;28;20504;-59
2021/11/15 11:41:33;;;;;;;15.80;8.53;;;5.00;99.90;;;;;;4964185;28;20520;-58
2021/11/15 11:44:02;;;;;;;16.60;7.80;;;4.90;99.90;;;;;;4969589;28;20422;-59
2021/11/15 11:46:28;;;;;;;15.57;8.63;;;4.90;99.90;;;;;;4969248;28;20412;-60
2021/11/15 11:48:55;;;;;;;21.53;8.30;;;4.90;99.90;;;;;;4985963;28;20470;-60
2021/11/15 11:51:25;;;;;;;22.07;8.60;;;4.90;99.90;;;;;;4980124;28;20293;-60
2021/11/15 11:54:07;;;;;;;18.40;9.30;;;4.90;99.90;;;;;;4970693;28;20815;-60
2021/11/15 11:56:33;;;;;;;23.17;10.53;;;5.00;99.90;;;;;;4969610;28;20479;-61
2021/11/15 11:59:15;;;;;;;24.97;9.57;;;5.00;99.90;;;;;;4959497;28;20477;-58
2021/11/15 12:01:54;;;;;;;19.00;8.60;;;5.10;99.90;;;;;;4974012;28;20232;-60
2021/11/15 12:04:20;;;;;;;15.93;8.33;;;5.10;99.90;;;;;;4969651;28;20528;-60
2021/11/15 12:06:49;;;;;;;17.70;8.80;;;5.20;99.90;;;;;;4980696;28;20444;-61
2021/11/15 12:09:16;;;;;;;16.20;8.10;;;5.20;99.90;;;;;;4965327;28;20539;-60
2021/11/15 12:11:59;;;;;;;20.23;9.13;;;5.30;99.90;;;;;;4972156;28;20433;-60
2021/11/15 12:14:37;;;;;;;16.67;8.03;;;5.30;99.90;;;;;;4971494;28;20454;-59
2021/11/15 12:17:07;;;;;;;13.67;8.13;;;5.30;99.90;;;;;;4971781;28;20428;-60
2021/11/15 12:20:05;;;;;;;16.13;8.27;;;5.30;99.90;;;;;;4961254;28;20620;-58
2021/11/15 12:22:43;;;;;;;17.20;9.00;;;5.30;99.90;;;;;;4959713;28;20439;-61
2021/11/15 12:25:22;;;;;;;18.57;8.63;;;5.30;99.90;;;;;;4965989;28;20421;-60
2021/11/15 12:27:54;;;;;;;20.73;9.33;;;5.30;99.90;;;;;;4970035;28;20432;-60
2021/11/15 12:30:24;;;;;;;17.07;9.50;;;5.30;99.90;;;;;;4959639;28;20453;-60
2021/11/15 12:33:08;;;;;;;16.27;8.10;;;5.30;99.90;;;;;;4963317;28;20438;-62
2021/11/15 12:35:56;;;;;;;17.10;8.23;;;5.30;99.90;;;;;;4971554;28;21301;-60
2021/11/15 12:38:39;;;;;;;18.50;7.97;;;5.50;99.90;;;;;;4973696;28;20464;-60
2021/11/15 12:41:29;;;;;;;15.57;8.70;;;5.50;99.90;;;;;;4964182;28;20684;-60
2021/11/15 12:44:04;;;;;;;14.73;7.60;;;5.50;99.90;;;;;;4957854;28;20433;-59
2021/11/15 12:46:49;;;;;;;14.30;7.20;;;5.50;99.90;;;;;;4971788;28;20483;-58
2021/11/15 12:49:23;;;;;;;17.03;8.57;;;5.40;99.90;;;;;;4963358;28;20517;-59
2021/11/15 12:52:10;;;;;;;13.33;7.87;;;5.30;99.90;;;;;;4965288;28;20820;-60